Kite, Georgia
Current Conditions -  °F | °C
As of 7:15 PM on Tuesday 25 Nov 2014 (Local Time) from KOKZ Reporting Station
Drizzle Drizzle  
Wind Chill: 50°   Ceiling: 9000
Heat Index: 50°   Visibility: 10mi
Dew Point: 49°   Wind: 0mph
Humidity: 97%   Direction: NA
Pressure: 30.06"   Gusts: NA
Location:  32.69°N, 82.51°W
Report Text: KOKZ 260015Z AUTO 00000KT 10SM -DZ OVC090 10/10 A3006 RMK AO2 T01000095
Loading
Personal Weather Stations






























Interactive Weather Map New forecast layout! Learn more

10-Day Weather Forecast

Advertisements
Track Severe Weather on mobile